Time;durP1;ratioP1;P1;durP2;ratioP2;P2;SDS_P1;SDS_P2;PMS_P1;PMS_P2;Temp;Humidity;BMP_temperature;BMP_pressure;BME280_temperature;BME280_humidity;BME280_pressure;Samples;Min_cycle;Max_cycle;Signal;HPM_P1;HPM_P2
2023/03/22 00:01:26;;;;;;;22.10;10.10;;;;;;;4.24;100.00;100598.79;105585;1296;24227;-73
2023/03/22 00:03:55;;;;;;;25.60;11.00;;;;;;;4.24;100.00;100593.25;105583;1296;22550;-72
2023/03/22 00:06:26;;;;;;;22.80;10.40;;;;;;;4.24;100.00;100597.55;105569;1296;26552;-72
2023/03/22 00:08:56;;;;;;;20.90;10.10;;;;;;;4.23;100.00;100593.31;105617;1296;25378;-72
2023/03/22 00:11:28;;;;;;;20.80;9.80;;;;;;;4.22;100.00;100595.55;105610;1296;25458;-72
2023/03/22 00:13:57;;;;;;;20.90;10.20;;;;;;;4.22;100.00;100598.28;105591;1296;25401;-72
2023/03/22 00:16:26;;;;;;;19.20;8.70;;;;;;;4.20;100.00;100600.88;105610;1296;26635;-72
2023/03/22 00:19:01;;;;;;;21.00;9.30;;;;;;;4.18;100.00;100605.44;105558;1290;25386;-72
2023/03/22 00:21:30;;;;;;;26.50;10.20;;;;;;;4.15;100.00;100608.21;106593;1296;25516;-72
2023/03/22 00:23:58;;;;;;;22.30;9.60;;;;;;;4.12;100.00;100613.27;108512;1296;22252;-73
2023/03/22 00:26:27;;;;;;;21.20;9.80;;;;;;;4.09;100.00;100618.30;108548;1296;22711;-73
2023/03/22 00:28:55;;;;;;;21.70;9.60;;;;;;;4.07;100.00;100616.01;107012;1296;22671;-73
2023/03/22 00:31:31;;;;;;;17.80;8.80;;;;;;;4.06;100.00;100620.89;105441;1296;25406;-73
2023/03/22 00:34:00;;;;;;;15.20;7.40;;;;;;;4.02;100.00;100619.73;105622;1296;25386;-72
2023/03/22 00:36:29;;;;;;;19.80;9.50;;;;;;;3.99;100.00;100619.94;105611;1296;25328;-73
2023/03/22 00:38:57;;;;;;;21.30;10.30;;;;;;;3.94;100.00;100616.35;105613;1296;25384;-73
2023/03/22 00:41:26;;;;;;;28.40;12.30;;;;;;;3.91;100.00;100617.13;105463;1296;25262;-72
2023/03/22 00:43:55;;;;;;;22.40;11.10;;;;;;;3.89;100.00;100614.98;105633;1296;25406;-73
2023/03/22 00:46:24;;;;;;;19.70;10.00;;;;;;;3.85;100.00;100615.77;105591;1296;22806;-72
2023/03/22 00:48:53;;;;;;;20.40;10.10;;;;;;;3.82;100.00;100617.98;105576;1296;22557;-74
2023/03/22 00:51:23;;;;;;;21.00;9.30;;;;;;;3.79;100.00;100617.87;105484;1296;26594;-74
2023/03/22 00:53:52;;;;;;;19.80;9.80;;;;;;;3.76;100.00;100619.65;105347;1296;25312;-72
2023/03/22 00:56:27;;;;;;;17.40;8.90;;;;;;;3.75;100.00;100615.33;105659;1296;25542;-73
2023/03/22 00:59:09;;;;;;;22.40;8.80;;;;;;;3.72;100.00;100616.58;105629;1296;22543;-73
2023/03/22 01:01:38;;;;;;;40.60;17.10;;;;;;;3.70;100.00;100618.13;105554;1296;22538;-72
2023/03/22 01:04:08;;;;;;;45.00;20.70;;;;;;;3.70;100.00;100613.36;105631;1296;26524;-73
2023/03/22 01:06:36;;;;;;;58.20;28.10;;;;;;;3.70;100.00;100615.45;105558;1296;25272;-72
2023/03/22 01:09:05;;;;;;;66.50;33.30;;;;;;;3.70;100.00;100619.95;105561;1296;24371;-72
2023/03/22 01:11:33;;;;;;;42.10;26.20;;;;;;;3.70;100.00;100622.92;105590;1296;25381;-73
2023/03/22 01:14:02;;;;;;;43.20;23.50;;;;;;;3.71;100.00;100625.78;104922;1296;1003710;-73
2023/03/22 01:16:31;;;;;;;47.40;22.10;;;;;;;3.70;100.00;100623.87;105579;1296;22548;-73
2023/03/22 01:19:00;;;;;;;34.00;18.20;;;;;;;3.70;100.00;100628.70;105420;1296;22552;-72
2023/03/22 01:21:29;;;;;;;28.20;16.10;;;;;;;3.69;100.00;100635.30;105598;1296;25570;-75
2023/03/22 01:23:57;;;;;;;26.60;13.80;;;;;;;3.70;100.00;100644.00;105568;1296;22555;-73
2023/03/22 01:26:26;;;;;;;28.90;13.30;;;;;;;3.72;100.00;100644.02;105568;1296;25532;-73
2023/03/22 01:28:54;;;;;;;23.90;13.30;;;;;;;3.75;100.00;100646.86;105480;1296;24363;-74
2023/03/22 01:31:24;;;;;;;21.70;12.10;;;;;;;3.75;100.00;100650.21;105536;1296;25445;-72
2023/03/22 01:33:53;;;;;;;27.10;12.60;;;;;;;3.77;100.00;100653.98;105604;1296;25521;-72
2023/03/22 01:36:22;;;;;;;23.00;11.10;;;;;;;3.80;100.00;100657.37;105618;1296;25569;-73
2023/03/22 01:38:50;;;;;;;21.50;10.90;;;;;;;3.82;100.00;100652.92;105470;1296;22549;-72
2023/03/22 01:41:20;;;;;;;23.10;11.60;;;;;;;3.84;100.00;100656.54;105508;1296;25293;-73
2023/03/22 01:44:10;;;;;;;21.90;11.60;;;;;;;3.86;100.00;100660.70;105612;1296;26682;-74
2023/03/22 01:46:40;;;;;;;18.60;9.40;;;;;;;3.86;100.00;100660.30;105529;1296;23367;-73
2023/03/22 01:49:14;;;;;;;22.30;10.60;;;;;;;3.87;100.00;100668.76;105689;1296;25497;-73
2023/03/22 01:51:46;;;;;;;22.80;10.30;;;;;;;3.88;100.00;100669.30;105532;1296;26672;-73
2023/03/22 01:54:28;;;;;;;20.10;10.70;;;;;;;3.87;100.00;100670.92;105581;1296;26568;-72
2023/03/22 01:56:57;;;;;;;20.20;9.80;;;;;;;3.87;100.00;100667.04;105592;1296;22547;-73
2023/03/22 01:59:33;;;;;;;22.00;9.80;;;;;;;3.87;100.00;100669.71;104741;1296;1002890;-73
2023/03/22 02:02:19;;;;;;;18.70;9.10;;;;;;;3.84;100.00;100670.79;105584;1296;25268;-72
2023/03/22 02:04:56;;;;;;;18.50;9.00;;;;;;;3.82;100.00;100666.52;105513;1297;23395;-73
2023/03/22 02:07:30;;;;;;;21.60;10.10;;;;;;;3.79;100.00;100672.23;105151;1298;22550;-72
2023/03/22 02:10:22;;;;;;;21.30;9.80;;;;;;;3.76;100.00;100676.16;105504;1297;22665;-74
2023/03/22 02:13:19;;;;;;;22.30;10.60;;;;;;;3.74;100.00;100677.95;105513;1298;26629;-72
2023/03/22 02:16:18;;;;;;;19.90;9.80;;;;;;;3.73;100.00;100677.14;105416;1297;22553;-73
2023/03/22 02:19:00;;;;;;;20.00;9.90;;;;;;;3.73;100.00;100674.64;105603;1290;25382;-72
2023/03/22 02:21:50;;;;;;;23.00;10.30;;;;;;;3.72;100.00;100673.97;105449;1296;25271;-73
2023/03/22 02:24:56;;;;;;;22.20;11.00;;;;;;;3.70;100.00;100670.77;105575;1296;26279;-73
2023/03/22 02:27:55;;;;;;;19.20;9.40;;;;;;;3.68;100.00;100669.49;105495;1296;25442;-73
2023/03/22 02:30:30;;;;;;;19.70;8.90;;;;;;;3.67;100.00;100660.11;105517;1296;24375;-73
2023/03/22 02:33:50;;;;;;;17.60;8.80;;;;;;;3.66;100.00;100665.00;105580;1296;27000;-73
2023/03/22 02:36:52;;;;;;;24.00;9.60;;;;;;;3.66;100.00;100666.62;104595;1304;25338;-73
2023/03/22 02:39:37;;;;;;;19.60;9.70;;;;;;;3.65;100.00;100673.58;105023;1296;22547;-73
2023/03/22 02:42:37;;;;;;;22.30;10.50;;;;;;;3.62;100.00;100671.49;105556;1296;23249;-72
2023/03/22 02:45:29;;;;;;;20.20;8.60;;;;;;;3.58;100.00;100674.60;105593;1296;23048;-72
2023/03/22 02:48:06;;;;;;;20.70;9.20;;;;;;;3.55;100.00;100679.52;105588;1296;26767;-74
2023/03/22 02:50:42;;;;;;;20.80;8.80;;;;;;;3.51;100.00;100681.55;105504;1296;22553;-72
2023/03/22 02:53:18;;;;;;;16.20;8.30;;;;;;;3.48;100.00;100685.70;105586;1296;25375;-74
2023/03/22 02:56:04;;;;;;;18.90;9.40;;;;;;;3.46;100.00;100687.28;105749;1296;24319;-72
2023/03/22 02:59:05;;;;;;;21.10;9.90;;;;;;;3.45;100.00;100690.20;108706;1297;22593;-73
2023/03/22 03:01:38;;;;;;;17.30;8.50;;;;;;;3.44;100.00;100692.23;106816;1296;23067;-73
2023/03/22 03:04:10;;;;;;;20.80;9.40;;;;;;;3.45;100.00;100701.45;105710;1296;22543;-72
2023/03/22 03:06:44;;;;;;;20.80;9.30;;;;;;;3.44;100.00;100699.91;105455;1296;22747;-73
2023/03/22 03:09:16;;;;;;;20.00;9.70;;;;;;;3.42;100.00;100699.45;105453;1296;25501;-73
2023/03/22 03:11:52;;;;;;;19.50;8.70;;;;;;;3.42;100.00;100700.02;105197;1297;25296;-73
2023/03/22 03:14:24;;;;;;;21.10;9.70;;;;;;;3.42;100.00;100702.15;105415;1296;23215;-73
2023/03/22 03:17:03;;;;;;;18.90;9.60;;;;;;;3.42;100.00;100701.64;105451;1296;25452;-73
2023/03/22 03:19:37;;;;;;;21.30;9.50;;;;;;;3.41;100.00;100706.48;102655;1296;1003741;-73
2023/03/22 03:22:21;;;;;;;19.30;10.10;;;;;;;3.42;100.00;100709.69;105226;1296;25492;-72
2023/03/22 03:25:03;;;;;;;20.10;9.10;;;;;;;3.40;100.00;100712.63;105594;1296;23287;-71
2023/03/22 03:27:48;;;;;;;20.50;9.80;;;;;;;3.38;100.00;100708.16;105584;1296;25328;-72
2023/03/22 03:30:21;;;;;;;18.30;8.90;;;;;;;3.37;100.00;100710.19;105568;1296;25450;-73
2023/03/22 03:32:54;;;;;;;17.50;8.80;;;;;;;3.35;100.00;100711.05;105620;1296;22561;-72
2023/03/22 03:35:31;;;;;;;;;;;;;;;3.33;100.00;100714.73;105623;1296;22531;-72
2023/03/22 03:38:19;;;;;;;16.90;8.00;;;;;;;3.32;100.00;100715.86;105608;1296;26545;-72
2023/03/22 03:41:03;;;;;;;16.90;8.60;;;;;;;3.30;100.00;100716.19;105644;1296;25303;-73
2023/03/22 03:43:32;;;;;;;19.10;8.40;;;;;;;3.27;100.00;100719.63;104779;1296;1003294;-72
2023/03/22 03:46:00;;;;;;;20.50;9.90;;;;;;;3.24;100.00;100722.30;104755;1296;1003236;-72
2023/03/22 03:48:31;;;;;;;20.20;9.30;;;;;;;3.22;100.00;100723.69;105598;1296;25337;-72
2023/03/22 03:51:00;;;;;;;25.20;10.10;;;;;;;3.20;100.00;100722.77;105544;1296;22662;-72
2023/03/22 03:53:29;;;;;;;27.00;11.70;;;;;;;3.19;100.00;100722.13;105470;1296;22551;-72
2023/03/22 03:55:59;;;;;;;23.70;11.60;;;;;;;3.18;100.00;100720.77;105623;1296;25429;-72
2023/03/22 03:58:32;;;;;;;22.20;10.30;;;;;;;3.18;100.00;100718.81;105457;1296;25531;-74
2023/03/22 04:01:02;;;;;;;36.10;17.50;;;;;;;3.19;100.00;100721.59;105559;1297;22813;-72
2023/03/22 04:03:59;;;;;;;40.20;18.80;;;;;;;3.21;100.00;100724.63;105525;1296;25512;-73
2023/03/22 04:06:58;;;;;;;29.00;14.80;;;;;;;3.23;100.00;100722.37;105479;1296;25310;-71
2023/03/22 04:09:31;;;;;;;35.20;15.50;;;;;;;3.25;100.00;100724.72;105479;1297;25408;-74
2023/03/22 04:12:11;;;;;;;24.80;12.80;;;;;;;3.28;100.00;100728.45;105537;1297;26694;-73
2023/03/22 04:14:40;;;;;;;27.40;13.20;;;;;;;3.30;100.00;100730.46;105311;1296;22719;-73
2023/03/22 04:17:17;;;;;;;27.50;12.90;;;;;;;3.32;100.00;100729.10;105279;1296;25456;-73
2023/03/22 04:19:48;;;;;;;27.70;12.20;;;;;;;3.33;100.00;100734.70;105118;1296;25427;-73
2023/03/22 04:22:17;;;;;;;29.70;13.00;;;;;;;3.33;100.00;100732.92;105514;1296;25416;-73
2023/03/22 04:24:49;;;;;;;27.30;12.60;;;;;;;3.33;100.00;100735.06;105621;1296;24307;-73
2023/03/22 04:27:20;;;;;;;25.40;12.50;;;;;;;3.33;100.00;100732.91;105661;1296;23312;-74
2023/03/22 04:29:55;;;;;;;23.60;11.30;;;;;;;3.35;100.00;100736.00;105601;1296;22549;-73
2023/03/22 04:32:42;;;;;;;25.40;12.40;;;;;;;3.35;100.00;100731.34;105440;1296;22549;-72
2023/03/22 04:35:11;;;;;;;24.50;12.00;;;;;;;3.35;100.00;100733.54;105564;1296;22771;-73
2023/03/22 04:37:45;;;;;;;22.30;10.70;;;;;;;3.34;100.00;100732.50;105430;1296;25548;-72
2023/03/22 04:40:19;;;;;;;21.50;12.00;;;;;;;3.34;100.00;100733.55;105352;1296;25454;-72
2023/03/22 04:43:09;;;;;;;27.40;15.00;;;;;;;3.35;100.00;100730.49;105591;1296;26531;-73
2023/03/22 04:45:46;;;;;;;35.00;19.10;;;;;;;3.35;100.00;100729.21;105813;1296;25478;-72
2023/03/22 04:48:20;;;;;;;31.60;16.90;;;;;;;3.37;100.00;100731.19;105880;1296;25329;-72
2023/03/22 04:50:52;;;;;;;34.90;17.50;;;;;;;3.41;100.00;100727.00;105713;1296;26650;-73
2023/03/22 04:53:26;;;;;;;30.90;15.70;;;;;;;3.46;100.00;100729.01;105437;1296;26676;-72
2023/03/22 04:56:01;;;;;;;28.70;15.70;;;;;;;3.50;100.00;100730.47;105551;1296;22549;-73
2023/03/22 04:58:30;;;;;;;25.80;12.40;;;;;;;3.56;100.00;100739.67;105433;1296;26513;-73
2023/03/22 05:01:00;;;;;;;27.60;11.90;;;;;;;3.64;100.00;100741.97;105589;1296;25337;-72
2023/03/22 05:03:30;;;;;;;28.50;13.10;;;;;;;3.73;100.00;100741.15;105514;1296;26529;-73
2023/03/22 05:05:59;;;;;;;25.70;13.30;;;;;;;3.84;100.00;100741.44;105350;1296;25536;-72
2023/03/22 05:08:39;;;;;;;28.40;13.00;;;;;;;4.00;100.00;100737.56;104758;1297;1003423;-72
2023/03/22 05:11:13;;;;;;;29.40;12.70;;;;;;;4.15;100.00;100736.32;105682;1296;25459;-73
2023/03/22 05:13:44;;;;;;;26.80;13.00;;;;;;;4.32;100.00;100734.73;105496;1296;23244;-73
2023/03/22 05:16:14;;;;;;;28.60;13.00;;;;;;;4.48;100.00;100732.11;105627;1296;25568;-72
2023/03/22 05:18:53;;;;;;;29.20;14.10;;;;;;;4.66;100.00;100730.41;105571;1296;25333;-73
2023/03/22 05:21:27;;;;;;;;;;;;;;;4.86;100.00;100733.18;105644;1296;22528;-73
2023/03/22 05:23:57;;;;;;;25.90;12.60;;;;;;;5.07;100.00;100724.46;105558;1296;26665;-72
2023/03/22 05:26:26;;;;;;;24.50;12.90;;;;;;;5.24;100.00;100728.64;105563;1296;25313;-73
2023/03/22 05:28:55;;;;;;;27.80;12.90;;;;;;;5.44;100.00;100728.70;106216;1296;22593;-72
2023/03/22 05:31:33;;;;;;;26.60;11.70;;;;;;;5.64;100.00;100733.54;108366;1296;22555;-73
2023/03/22 05:34:08;;;;;;;29.60;13.30;;;;;;;5.83;100.00;100730.98;106371;1296;25449;-74
2023/03/22 05:36:38;;;;;;;29.00;13.40;;;;;;;6.03;100.00;100738.89;105617;1296;24367;-72
2023/03/22 05:39:14;;;;;;;;;;;;;;;6.21;100.00;100743.70;105612;1296;22524;-72
2023/03/22 05:41:45;;;;;;;27.10;12.80;;;;;;;6.36;100.00;100748.23;105599;1296;25531;-73
2023/03/22 05:44:14;;;;;;;32.20;15.60;;;;;;;6.46;100.00;100751.29;105606;1296;25390;-74
2023/03/22 05:46:56;;;;;;;25.50;12.80;;;;;;;6.54;100.00;100752.05;105570;1296;25303;-75
2023/03/22 05:49:35;;;;;;;38.30;17.50;;;;;;;6.63;100.00;100760.11;105612;1296;25286;-74
2023/03/22 05:52:07;;;;;;;30.50;14.20;;;;;;;6.71;100.00;100757.70;105461;1293;26637;-71
2023/03/22 05:55:00;;;;;;;32.20;15.00;;;;;;;6.75;100.00;100756.47;104582;1296;1003507;-72
2023/03/22 05:57:29;;;;;;;33.70;15.10;;;;;;;6.76;100.00;100760.63;105382;1296;25445;-69
2023/03/22 06:00:00;;;;;;;27.80;14.00;;;;;;;6.80;100.00;100762.45;105359;1296;25386;-71
2023/03/22 06:02:40;;;;;;;31.50;14.90;;;;;;;6.84;100.00;100763.36;105483;1296;25673;-69
2023/03/22 06:05:15;;;;;;;27.10;15.00;;;;;;;6.87;100.00;100768.85;105029;1296;25524;-68
2023/03/22 06:07:45;;;;;;;32.20;16.80;;;;;;;6.91;100.00;100769.24;105175;1296;273595;-68
2023/03/22 06:10:18;;;;;;;35.10;18.40;;;;;;;6.94;100.00;100770.29;105515;1292;25493;-69
2023/03/22 06:12:54;;;;;;;39.60;19.60;;;;;;;6.97;100.00;100766.23;105485;1296;25356;-69
2023/03/22 06:15:28;;;;;;;35.20;17.50;;;;;;;6.99;100.00;100773.39;105531;1296;25440;-68
2023/03/22 06:18:07;;;;;;;37.10;17.00;;;;;;;7.02;100.00;100771.70;105506;1289;23841;-68
2023/03/22 06:20:40;;;;;;;34.50;16.80;;;;;;;7.07;100.00;100774.55;105476;1290;25428;-69
2023/03/22 06:23:15;;;;;;;32.80;17.60;;;;;;;7.13;100.00;100778.11;105428;1295;25329;-68
2023/03/22 06:25:45;;;;;;;32.30;17.30;;;;;;;7.22;100.00;100780.90;105462;1296;22549;-69
2023/03/22 06:28:15;;;;;;;36.10;18.20;;;;;;;7.37;100.00;100783.61;105616;1287;24282;-68
2023/03/22 06:30:50;;;;;;;40.10;17.40;;;;;;;7.54;100.00;100786.80;105535;1289;25273;-68
2023/03/22 06:33:29;;;;;;;32.60;16.80;;;;;;;7.72;100.00;100783.61;105621;1292;22549;-69
2023/03/22 06:36:02;;;;;;;39.80;17.30;;;;;;;7.89;100.00;100779.98;105376;1295;26770;-69
2023/03/22 06:38:39;;;;;;;40.50;18.00;;;;;;;8.05;100.00;100779.52;105416;1295;26671;-69
2023/03/22 06:41:12;;;;;;;32.50;15.50;;;;;;;8.21;100.00;100782.40;105517;1296;25449;-67
2023/03/22 06:43:41;;;;;;;32.20;15.80;;;;;;;8.36;100.00;100784.08;105292;1296;26520;-67
2023/03/22 06:46:30;;;;;;;34.50;15.80;;;;;;;8.51;100.00;100777.19;105524;1296;26659;-68
2023/03/22 06:49:07;;;;;;;34.90;19.10;;;;;;;8.67;100.00;100780.63;105387;1296;25453;-67
2023/03/22 06:51:38;;;;;;;64.80;29.10;;;;;;;8.81;100.00;100780.79;105606;1296;25425;-67
2023/03/22 06:54:07;;;;;;;47.90;22.10;;;;;;;8.96;100.00;100780.58;105253;1296;22562;-70
2023/03/22 06:56:36;;;;;;;46.60;23.50;;;;;;;9.11;100.00;100781.98;105474;1296;26620;-68
2023/03/22 06:59:05;;;;;;;43.80;23.30;;;;;;;9.24;100.00;100780.72;105427;1296;25409;-69
2023/03/22 07:01:34;;;;;;;44.00;21.50;;;;;;;9.36;100.00;100775.48;105484;1296;26675;-69
2023/03/22 07:04:03;;;;;;;48.40;23.90;;;;;;;9.53;100.00;100777.59;105390;1296;22624;-67
2023/03/22 07:06:33;;;;;;;43.70;21.90;;;;;;;9.72;100.00;100780.11;105549;1296;25564;-68
2023/03/22 07:09:02;;;;;;;52.80;24.10;;;;;;;9.87;100.00;100784.95;105346;1297;22574;-72
2023/03/22 07:11:34;;;;;;;52.90;22.20;;;;;;;10.09;100.00;100780.49;105096;1296;22583;-70
2023/03/22 07:14:03;;;;;;;42.40;19.30;;;;;;;10.37;100.00;100780.50;105511;1296;22553;-76
2023/03/22 07:16:58;;;;;;;61.60;25.20;;;;;;;10.73;100.00;100772.11;105268;1296;24275;-74
2023/03/22 07:19:30;;;;;;;41.40;21.80;;;;;;;11.05;100.00;100767.18;105558;1297;25388;-74
2023/03/22 07:22:02;;;;;;;44.40;22.80;;;;;;;11.31;100.00;100767.83;105123;1296;25440;-73
2023/03/22 07:24:36;;;;;;;48.40;25.20;;;;;;;11.60;100.00;100760.34;105173;1297;22823;-71
2023/03/22 07:27:38;;;;;;;40.70;25.00;;;;;;;11.93;100.00;100754.54;105397;1297;22574;-74
2023/03/22 07:30:07;;;;;;;32.20;17.90;;;;;;;12.16;100.00;100750.84;105655;1296;23322;-75
2023/03/22 07:32:40;;;;;;;33.10;17.50;;;;;;;12.40;100.00;100753.99;105800;1297;25440;-75
2023/03/22 07:35:11;;;;;;;32.80;17.40;;;;;;;12.56;100.00;100761.60;105490;1297;22549;-67
2023/03/22 07:37:40;;;;;;;33.80;17.60;;;;;;;12.47;100.00;100770.46;105232;1296;22678;-67
2023/03/22 07:40:22;;;;;;;33.40;18.30;;;;;;;12.33;100.00;100772.84;105846;1296;23896;-68
2023/03/22 07:42:52;;;;;;;32.80;18.70;;;;;;;12.30;100.00;100771.73;105444;1296;23917;-68
2023/03/22 07:45:35;;;;;;;41.40;18.90;;;;;;;12.33;100.00;100769.67;105560;1297;26551;-69
2023/03/22 07:48:42;;;;;;;37.00;18.20;;;;;;;12.45;100.00;100765.57;105518;1297;22623;-67
2023/03/22 07:51:35;;;;;;;32.70;16.80;;;;;;;12.55;100.00;100768.34;105083;1296;25398;-66
2023/03/22 07:54:04;;;;;;;32.30;17.10;;;;;;;12.65;100.00;100768.35;105642;1297;26571;-76
2023/03/22 07:56:35;;;;;;;30.30;16.20;;;;;;;12.60;100.00;100776.19;105574;1297;25490;-74
2023/03/22 07:59:05;;;;;;;32.20;16.70;;;;;;;12.44;100.00;100784.92;105453;1297;25439;-74
2023/03/22 08:01:37;;;;;;;29.90;16.80;;;;;;;12.42;100.00;100788.77;107107;1297;22622;-73
2023/03/22 08:04:21;;;;;;;30.50;16.70;;;;;;;12.53;100.00;100792.04;106814;1296;22583;-73
2023/03/22 08:06:58;;;;;;;29.90;16.00;;;;;;;12.76;100.00;100793.92;106578;1296;24266;-69
2023/03/22 08:09:28;;;;;;;29.80;16.20;;;;;;;13.10;100.00;100792.25;105983;1296;22542;-71
2023/03/22 08:11:58;;;;;;;62.10;34.40;;;;;;;13.41;100.00;100795.67;105341;1297;23461;-67
2023/03/22 08:14:26;;;;;;;33.40;18.50;;;;;;;13.70;100.00;100793.73;105546;1296;22549;-71
2023/03/22 08:17:08;;;;;;;35.70;20.20;;;;;;;13.96;100.00;100796.55;105149;1296;1003724;-70
2023/03/22 08:19:39;;;;;;;29.90;17.10;;;;;;;14.13;100.00;100802.89;105435;1297;26523;-72
2023/03/22 08:22:10;;;;;;;34.90;18.10;;;;;;;14.27;100.00;100803.10;105467;1293;23026;-71
2023/03/22 08:25:14;;;;;;;29.50;16.10;;;;;;;14.42;100.00;100781.50;104736;1296;25393;-72
2023/03/22 08:27:44;;;;;;;49.10;28.00;;;;;;;14.34;100.00;100795.02;105360;1289;26538;-73
2023/03/22 08:30:14;;;;;;;37.10;22.60;;;;;;;14.12;100.00;100813.25;105860;1292;25615;-74
2023/03/22 08:32:44;;;;;;;28.50;15.60;;;;;;;14.00;100.00;100813.94;105936;1290;25483;-75
2023/03/22 08:35:16;;;;;;;32.90;15.70;;;;;;;14.00;100.00;100815.40;105613;1296;25518;-70
2023/03/22 08:37:46;;;;;;;31.30;16.40;;;;;;;14.06;100.00;100810.91;105724;1290;26537;-72
2023/03/22 08:40:16;;;;;;;29.30;15.20;;;;;;;13.91;100.00;100836.80;105288;1296;22560;-73
2023/03/22 08:42:54;;;;;;;28.60;15.90;;;;;;;13.70;100.00;100850.43;105635;1290;25460;-73
2023/03/22 08:45:22;;;;;;;35.80;15.50;;;;;;;13.53;100.00;100851.48;105468;1295;25443;-73
2023/03/22 08:47:58;;;;;;;28.30;16.30;;;;;;;13.44;100.00;100842.64;105402;1290;24265;-73
2023/03/22 08:50:28;;;;;;;32.80;17.00;;;;;;;13.44;100.00;100830.12;105409;1296;26585;-69
2023/03/22 08:53:05;;;;;;;33.30;17.40;;;;;;;13.41;100.00;100830.79;105611;1297;22560;-72
2023/03/22 08:55:36;;;;;;;32.80;17.30;;;;;;;13.37;100.00;100827.87;104613;1293;1002435;-73
2023/03/22 08:58:12;;;;;;;35.50;17.80;;;;;;;13.33;100.00;100825.09;105595;1296;22554;-72
2023/03/22 09:01:11;;;;;;;35.80;17.20;;;;;;;13.19;100.00;100822.34;105614;1296;24318;-74
2023/03/22 09:03:44;;;;;;;30.30;16.70;;;;;;;13.05;100.00;100822.13;105450;1293;25432;-75
2023/03/22 09:06:13;;;;;;;31.80;17.10;;;;;;;12.98;100.00;100815.09;105550;1296;25077;-77
2023/03/22 09:08:50;;;;;;;30.70;16.70;;;;;;;12.98;100.00;100810.60;105368;1290;26522;-73
2023/03/22 09:11:22;;;;;;;71.60;20.80;;;;;;;12.97;100.00;100811.83;105255;1296;24601;-73
2023/03/22 09:13:53;;;;;;;33.60;18.60;;;;;;;13.02;100.00;100806.64;106265;1296;25528;-80
2023/03/22 09:16:27;;;;;;;29.70;17.20;;;;;;;13.19;100.00;100806.78;106379;1293;26525;-78
2023/03/22 09:19:01;;;;;;;35.30;18.20;;;;;;;13.42;100.00;100807.39;105716;1296;25515;-73
2023/03/22 09:21:32;;;;;;;33.70;17.80;;;;;;;13.79;100.00;100803.98;106020;1296;22997;-80
2023/03/22 09:24:10;;;;;;;35.60;19.40;;;;;;;14.22;100.00;100805.27;105641;1296;25443;-70
2023/03/22 09:26:43;;;;;;;70.20;41.20;;;;;;;14.58;100.00;100814.87;105754;1296;26671;-72
2023/03/22 09:29:12;;;;;;;31.00;18.40;;;;;;;14.98;100.00;100816.92;105652;1293;26530;-72
2023/03/22 09:31:47;;;;;;;30.70;16.60;;;;;;;15.32;100.00;100859.83;105547;1296;26540;-75
2023/03/22 09:34:23;;;;;;;32.50;16.80;;;;;;;15.39;100.00;100859.54;105575;1296;25312;-70
2023/03/22 09:37:01;;;;;;;33.70;18.50;;;;;;;15.43;100.00;100868.39;105624;1296;25389;-75
2023/03/22 09:39:37;;;;;;;35.50;17.80;;;;;;;15.58;100.00;100872.50;105739;1296;25453;-70
2023/03/22 09:42:21;;;;;;;30.80;17.00;;;;;;;15.65;100.00;100882.43;105701;1289;25233;-72
2023/03/22 09:44:54;;;;;;;34.20;17.70;;;;;;;15.67;100.00;100884.02;105551;1296;26768;-66
2023/03/22 09:47:47;;;;;;;;;;;;;;;15.62;100.00;100867.58;104993;1293;24260;-78
2023/03/22 09:50:27;;;;;;;30.60;15.70;;;;;;;15.50;100.00;100971.56;105635;1293;25368;-78
2023/03/22 09:52:56;;;;;;;29.60;15.50;;;;;;;15.35;100.00;101036.02;106038;1295;24323;-78
2023/03/22 09:55:48;;;;;;;32.10;15.50;;;;;;;15.41;100.00;101014.98;105801;1290;22541;-76
2023/03/22 09:58:26;;;;;;;31.80;16.40;;;;;;;15.86;100.00;100988.82;105481;1290;22618;-77
2023/03/22 10:01:13;;;;;;;28.90;15.10;;;;;;;16.26;100.00;100724.65;105467;1288;22577;-76
2023/03/22 10:04:31;;;;;;;27.40;15.60;;;;;;;16.57;100.00;100665.95;105376;1296;22545;-68
2023/03/22 10:07:09;;;;;;;32.30;16.50;;;;;;;16.48;100.00;100574.69;105762;1296;26791;-68
2023/03/22 10:10:11;;;;;;;29.00;16.50;;;;;;;16.16;100.00;100613.13;105766;1296;23905;-68
2023/03/22 10:13:12;;;;;;;29.90;14.80;;;;;;;15.98;100.00;100604.67;105528;1290;22543;-70
2023/03/22 10:15:48;;;;;;;27.30;14.60;;;;;;;16.14;100.00;100617.85;105574;1289;25408;-69
2023/03/22 10:18:22;;;;;;;29.30;15.10;;;;;;;16.48;100.00;100600.69;105435;1289;26777;-75
2023/03/22 10:21:01;;;;;;;29.70;15.00;;;;;;;16.67;100.00;100585.52;105542;1296;24292;-73
2023/03/22 10:23:40;;;;;;;25.00;13.40;;;;;;;16.69;100.00;100547.04;105274;1293;25317;-70
2023/03/22 10:26:21;;;;;;;27.70;14.80;;;;;;;16.75;100.00;100568.73;105523;1293;22641;-72
2023/03/22 10:29:18;;;;;;;26.00;13.40;;;;;;;16.51;100.00;100533.59;105232;1296;23322;-68
2023/03/22 10:31:47;;;;;;;31.70;15.70;;;;;;;16.16;100.00;100530.70;105449;1296;25609;-80
2023/03/22 10:34:21;;;;;;;24.80;14.20;;;;;;;15.98;100.00;100525.15;105702;1296;25651;-77
2023/03/22 10:36:51;;;;;;;29.40;14.50;;;;;;;15.81;100.00;100523.52;106329;1296;25975;-78
2023/03/22 10:39:29;;;;;;;28.10;14.10;;;;;;;15.73;100.00;100522.14;105299;1288;22611;-77
2023/03/22 10:42:03;;;;;;;29.90;14.40;;;;;;;15.73;100.00;100520.98;105595;1289;26537;-67
2023/03/22 10:44:35;;;;;;;26.70;14.40;;;;;;;15.82;100.00;100527.94;105606;1289;22546;-82
2023/03/22 10:47:06;;;;;;;26.10;14.70;;;;;;;15.89;100.00;100517.25;105322;1273;23890;-83
2023/03/22 10:49:43;;;;;;;28.90;12.90;;;;;;;15.91;100.00;100504.65;105313;1296;22550;-76
2023/03/22 10:52:22;;;;;;;26.90;14.60;;;;;;;15.89;100.00;100487.23;105422;1290;25481;-71
2023/03/22 10:54:54;;;;;;;26.20;12.40;;;;;;;15.87;100.00;100524.00;105565;1290;25293;-72
2023/03/22 10:57:28;;;;;;;42.30;23.30;;;;;;;15.83;100.00;100500.92;105670;1296;25388;-72
2023/03/22 10:59:58;;;;;;;55.10;37.60;;;;;;;15.76;100.00;100488.85;105607;1296;24293;-70
2023/03/22 11:02:31;;;;;;;30.40;16.40;;;;;;;15.74;100.00;100489.42;105558;1296;25451;-70
2023/03/22 11:05:03;;;;;;;30.50;15.50;;;;;;;15.76;100.00;100464.16;105388;1293;22543;-70
2023/03/22 11:07:42;;;;;;;26.00;14.70;;;;;;;15.69;100.00;100441.23;106178;1290;22558;-85
2023/03/22 11:10:22;;;;;;;31.80;16.50;;;;;;;15.57;100.00;100425.43;106909;1296;25395;-82
2023/03/22 11:13:06;;;;;;;32.60;14.50;;;;;;;15.46;100.00;100431.16;106026;1291;25189;-83
2023/03/22 11:15:42;;;;;;;30.30;14.30;;;;;;;15.34;100.00;100420.59;108230;1301;22766;-81
2023/03/22 11:18:15;;;;;;;24.00;13.00;;;;;;;15.24;100.00;100413.82;106987;1301;25933;-79
2023/03/22 11:21:02;;;;;;;28.20;14.40;;;;;;;15.08;100.00;100399.61;105169;1298;22549;-82
2023/03/22 11:23:34;;;;;;;26.50;13.30;;;;;;;15.05;100.00;100415.06;106138;1301;23774;-80
2023/03/22 11:26:14;;;;;;;25.20;12.30;;;;;;;15.07;100.00;100409.39;105471;1301;22545;-82
2023/03/22 11:28:49;;;;;;;26.20;13.20;;;;;;;15.12;100.00;100405.48;106185;1301;22568;-82
2023/03/22 11:31:19;;;;;;;24.70;13.60;;;;;;;15.17;100.00;100388.89;104829;1301;22569;-70
2023/03/22 11:33:58;;;;;;;24.70;13.70;;;;;;;15.12;100.00;100338.52;105107;1301;25381;-70
2023/03/22 11:36:28;;;;;;;27.40;13.70;;;;;;;15.16;100.00;100333.81;107474;1301;25311;-78
2023/03/22 11:39:00;;;;;;;24.60;12.80;;;;;;;15.50;100.00;100343.82;107472;1301;22818;-78